createdAt,value
2022-10-19T00:01:40.664Z,1094.7
2022-10-19T00:03:24.342Z,1090.8
2022-10-19T00:05:08.044Z,1089.6
2022-10-19T00:06:51.758Z,1084.9
2022-10-19T00:08:35.421Z,1081.8
2022-10-19T00:10:19.185Z,1082.3
2022-10-19T00:12:02.874Z,1081.2
2022-10-19T00:13:46.554Z,1077.8
2022-10-19T00:15:30.246Z,1073.6
2022-10-19T00:17:13.955Z,1070.2
2022-10-19T00:18:57.654Z,1066.1
2022-10-19T00:20:41.323Z,1065.2
2022-10-19T00:22:25.149Z,1058.4
2022-10-19T00:24:08.764Z,1053.7
2022-10-19T00:25:52.439Z,1052.1
2022-10-19T00:27:36.128Z,1047.9
2022-10-19T00:29:19.837Z,1044.2
2022-10-19T00:31:03.596Z,1043.4
2022-10-19T00:32:47.274Z,1039.7
2022-10-19T00:34:30.958Z,1036.6
2022-10-19T00:36:14.641Z,1034
2022-10-19T00:37:58.349Z,1033
2022-10-19T00:39:42.133Z,1030.6
2022-10-19T00:41:25.801Z,1029.7
2022-10-19T00:43:09.482Z,1027.5
2022-10-19T00:44:53.165Z,1025.4
2022-10-19T00:46:36.843Z,1021.4
2022-10-19T00:48:20.541Z,1016.4
2022-10-19T00:50:04.259Z,1014.6
2022-10-19T00:51:48.031Z,1007.9
2022-10-19T00:53:31.731Z,1006
2022-10-19T00:55:15.381Z,1003.1
2022-10-19T00:56:59.064Z,999
2022-10-19T00:58:42.796Z,996.3
2022-10-19T01:00:26.532Z,993.2
2022-10-19T01:02:10.210Z,989.6
2022-10-19T01:03:53.943Z,988.1
2022-10-19T01:05:37.574Z,983.2
2022-10-19T01:07:21.277Z,982.1
2022-10-19T01:09:05.029Z,979.8
2022-10-19T01:10:48.734Z,974.5
2022-10-19T01:12:32.413Z,972.7
2022-10-19T01:14:16.098Z,974.9
2022-10-19T01:15:59.776Z,973
2022-10-19T01:17:43.495Z,974.1
2022-10-19T01:19:27.186Z,973.2
2022-10-19T01:21:10.937Z,970.4
2022-10-19T01:22:54.618Z,967.3
2022-10-19T01:24:38.316Z,964.3
2022-10-19T01:26:21.991Z,962.5
2022-10-19T01:28:05.737Z,961.7
2022-10-19T01:29:49.373Z,960.6
2022-10-19T01:31:33.140Z,958.3
2022-10-19T01:33:16.831Z,954.2
2022-10-19T01:35:00.567Z,948.2
2022-10-19T01:36:44.185Z,945.5
2022-10-19T01:38:27.909Z,946
2022-10-19T01:40:11.624Z,946.4
2022-10-19T01:41:55.356Z,942.5
2022-10-19T01:43:39.031Z,934.7
2022-10-19T01:45:22.726Z,930.2
2022-10-19T01:47:06.400Z,924
2022-10-19T01:48:50.109Z,919.1
2022-10-19T01:50:33.794Z,919.2
2022-10-19T01:52:17.497Z,918.5
2022-10-19T01:54:01.236Z,916.7
2022-10-19T01:55:44.926Z,916
2022-10-19T01:57:28.598Z,915.4
2022-10-19T01:59:12.284Z,914.2
2022-10-19T02:00:56.089Z,911.5
2022-10-19T02:02:39.755Z,909.9
2022-10-19T02:04:23.453Z,905.2
2022-10-19T02:06:07.119Z,903.6
2022-10-19T02:07:50.802Z,902
2022-10-19T02:09:34.510Z,899.4
2022-10-19T02:11:18.214Z,897.1
2022-10-19T02:13:01.960Z,895.5
2022-10-19T02:14:45.649Z,895.8
2022-10-19T02:16:29.329Z,893.1
2022-10-19T02:18:13.047Z,891.9
2022-10-19T02:19:56.747Z,890.6
2022-10-19T02:21:40.491Z,890
2022-10-19T02:23:24.169Z,888.9
2022-10-19T02:25:07.846Z,885.9
2022-10-19T02:26:51.549Z,886.2
2022-10-19T02:28:35.241Z,884.2
2022-10-19T02:30:19.013Z,881.2
2022-10-19T02:32:02.695Z,879.7
2022-10-19T02:33:46.444Z,876.9
2022-10-19T02:35:30.066Z,875
2022-10-19T02:37:13.906Z,874.2
2022-10-19T02:38:57.469Z,871
2022-10-19T02:40:41.220Z,868.3
2022-10-19T02:42:24.900Z,867.3
2022-10-19T02:44:08.577Z,867
2022-10-19T02:45:52.267Z,866.1
2022-10-19T02:47:35.987Z,866.1
2022-10-19T02:49:19.738Z,865.3
2022-10-19T02:51:03.425Z,863.2
2022-10-19T02:52:47.100Z,859
2022-10-19T02:54:30.784Z,859.8
2022-10-19T02:56:14.493Z,858.8
2022-10-19T02:57:58.188Z,853.7
2022-10-19T02:59:42.012Z,848.3
2022-10-19T03:01:25.627Z,845.4
2022-10-19T03:03:09.309Z,846.2
2022-10-19T03:04:52.999Z,844.4
2022-10-19T03:06:36.704Z,842
2022-10-19T03:08:20.416Z,841.7
2022-10-19T03:10:04.243Z,838.2
2022-10-19T03:11:47.879Z,835.6
2022-10-19T03:13:31.540Z,831.3
2022-10-19T03:15:15.206Z,830.5
2022-10-19T03:16:58.925Z,826.9
2022-10-19T03:18:42.672Z,825.8
2022-10-19T03:20:26.354Z,826.2
2022-10-19T03:22:10.048Z,826.4
2022-10-19T03:23:53.738Z,825.5
2022-10-19T03:25:37.450Z,825.4
2022-10-19T03:27:21.157Z,825.2
2022-10-19T03:29:04.877Z,824.7
2022-10-19T03:30:48.557Z,826.8
2022-10-19T03:32:32.254Z,823.7
2022-10-19T03:34:15.973Z,821.4
2022-10-19T03:35:59.658Z,819.9
2022-10-19T03:37:43.400Z,815.6
2022-10-19T03:39:27.120Z,816.2
2022-10-19T03:41:10.765Z,816.3
2022-10-19T03:42:54.451Z,814.3
2022-10-19T03:44:38.160Z,811.9
2022-10-19T03:46:21.875Z,811.1
2022-10-19T03:48:05.607Z,808
2022-10-19T03:49:49.292Z,808.1
2022-10-19T03:51:32.966Z,806.8
2022-10-19T03:53:16.678Z,806.6
2022-10-19T03:55:00.362Z,805.8
2022-10-19T03:56:44.137Z,804.1
2022-10-19T03:58:27.810Z,806.9
2022-10-19T04:00:11.883Z,805.3
2022-10-19T04:01:55.181Z,804
2022-10-19T04:03:38.936Z,799.6
2022-10-19T04:05:22.606Z,795.7
2022-10-19T04:07:06.345Z,794.9
2022-10-19T04:08:50.021Z,794
2022-10-19T04:10:33.703Z,792.4
2022-10-19T04:12:17.423Z,793.6
2022-10-19T04:14:01.111Z,790
2022-10-19T04:15:44.785Z,786.5
2022-10-19T04:17:28.619Z,788.1
2022-10-19T04:19:12.221Z,786.5
2022-10-19T04:20:55.908Z,784.9
2022-10-19T04:22:39.588Z,784.7
2022-10-19T04:24:23.282Z,786.1
2022-10-19T04:26:07.000Z,786.8
2022-10-19T04:27:50.685Z,784.8
2022-10-19T04:29:34.432Z,782.9
2022-10-19T04:31:18.108Z,781.5
2022-10-19T04:33:01.805Z,781.2
2022-10-19T04:34:45.499Z,780.6
2022-10-19T04:36:29.211Z,778.4
2022-10-19T04:38:12.967Z,777.1
2022-10-19T04:39:56.638Z,775.4
2022-10-19T04:41:40.838Z,773.3
2022-10-19T04:43:24.012Z,771.6
2022-10-19T04:45:07.725Z,768.2
2022-10-19T04:46:51.486Z,766.7
2022-10-19T04:48:35.154Z,765.9
2022-10-19T04:50:18.961Z,762.8
2022-10-19T04:52:02.519Z,761.5
2022-10-19T04:53:46.282Z,763.1
2022-10-19T04:55:29.918Z,766.9
2022-10-19T04:57:13.708Z,769.1
2022-10-19T04:58:57.362Z,771.5
2022-10-19T05:00:41.046Z,772.3
2022-10-19T05:02:24.734Z,772.6
2022-10-19T05:04:08.437Z,769.1
2022-10-19T05:05:52.123Z,764.1
2022-10-19T05:07:35.825Z,760.3
2022-10-19T05:09:19.564Z,759
2022-10-19T05:11:03.246Z,756.2
2022-10-19T05:12:46.927Z,756.8
2022-10-19T05:14:30.619Z,757
2022-10-19T05:16:14.336Z,755.8
2022-10-19T05:17:58.031Z,753.6
2022-10-19T05:19:41.771Z,750.8
2022-10-19T05:21:25.447Z,746.5
2022-10-19T05:23:09.176Z,745.9
2022-10-19T05:24:52.865Z,743.3
2022-10-19T05:26:36.538Z,740
2022-10-19T05:28:20.297Z,744
2022-10-19T05:30:03.981Z,744
2022-10-19T05:31:47.661Z,741
2022-10-19T05:33:31.346Z,740.2
2022-10-19T05:35:15.086Z,739.8
2022-10-19T05:36:58.821Z,738.3
2022-10-19T05:38:42.495Z,738.2
2022-10-19T05:40:26.194Z,739.3
2022-10-19T05:42:09.863Z,741.1
2022-10-19T05:43:53.608Z,741.2
2022-10-19T05:45:37.289Z,739
2022-10-19T05:47:20.944Z,734.8
2022-10-19T05:49:04.705Z,732.3
2022-10-19T05:50:48.383Z,733.1
2022-10-19T05:52:32.115Z,732.7
2022-10-19T05:54:15.797Z,735.4
2022-10-19T05:55:59.470Z,733.2
2022-10-19T05:57:43.167Z,732.2
2022-10-19T05:59:26.924Z,731.5
2022-10-19T06:01:10.595Z,730.5
2022-10-19T06:02:54.282Z,729.2
2022-10-19T06:04:37.965Z,728.2
2022-10-19T06:06:21.677Z,725
2022-10-19T06:08:05.365Z,727.8
2022-10-19T06:09:49.125Z,727.2
2022-10-19T06:11:32.823Z,729.2
2022-10-19T06:13:16.491Z,728.9
2022-10-19T06:15:00.239Z,728.2
2022-10-19T06:16:43.957Z,726.8
2022-10-19T06:18:27.571Z,724.2
2022-10-19T06:20:11.326Z,727.9
2022-10-19T06:21:55.001Z,727.2
2022-10-19T06:23:38.682Z,723.6
2022-10-19T06:25:22.391Z,722.7
2022-10-19T06:27:06.079Z,723.5
2022-10-19T06:28:49.843Z,726.8
2022-10-19T06:30:33.528Z,728.5
2022-10-19T06:32:17.209Z,728.7
2022-10-19T06:34:00.893Z,728.9
2022-10-19T06:35:44.572Z,726.8
2022-10-19T06:37:28.295Z,730.5
2022-10-19T06:39:12.009Z,728.6
2022-10-19T06:40:55.733Z,727.3
2022-10-19T06:42:39.658Z,724.6
2022-10-19T06:44:23.104Z,722.1
2022-10-19T06:46:06.807Z,722
2022-10-19T06:47:50.498Z,722.8
2022-10-19T06:49:34.202Z,721.3
2022-10-19T06:51:17.940Z,720.3
2022-10-19T06:53:01.635Z,721.2
2022-10-19T06:54:45.310Z,719.3
2022-10-19T06:56:29.020Z,717.8
2022-10-19T06:58:12.865Z,717.7
2022-10-19T06:59:56.420Z,718.8
2022-10-19T07:01:40.281Z,719.3
2022-10-19T07:03:23.923Z,717.3
2022-10-19T07:05:07.630Z,719.7
2022-10-19T07:06:51.210Z,720.5
2022-10-19T07:08:34.954Z,723.6
2022-10-19T07:10:18.623Z,724.1
2022-10-19T07:12:02.290Z,722.8
2022-10-19T07:13:46.026Z,723.1
2022-10-19T07:15:29.711Z,720.7
2022-10-19T07:17:13.386Z,716.6
2022-10-19T07:18:57.093Z,715.4
2022-10-19T07:20:40.792Z,715.7
2022-10-19T07:22:24.554Z,716.6
2022-10-19T07:24:08.233Z,719
2022-10-19T07:25:51.918Z,719.2
2022-10-19T07:27:35.600Z,719.7
2022-10-19T07:29:19.307Z,718.6
2022-10-19T07:31:02.986Z,722.4
2022-10-19T07:32:46.760Z,723.4
2022-10-19T07:34:30.438Z,721.4
2022-10-19T07:36:14.116Z,718.6
2022-10-19T07:37:57.798Z,717.4
2022-10-19T07:39:41.504Z,715.6
2022-10-19T07:41:25.244Z,716.6
2022-10-19T07:43:08.964Z,722.1
2022-10-19T07:44:52.662Z,728.3
2022-10-19T07:46:36.323Z,732.6
2022-10-19T07:48:20.010Z,736.6
2022-10-19T07:50:03.712Z,737.9
2022-10-19T07:51:47.400Z,745
2022-10-19T07:53:31.096Z,759.5
2022-10-19T07:55:14.847Z,773
2022-10-19T07:56:58.567Z,778.6
2022-10-19T07:58:42.312Z,779.8
2022-10-19T08:00:25.894Z,779.7
2022-10-19T08:02:09.608Z,783.2
2022-10-19T08:03:53.376Z,783.3
2022-10-19T08:05:37.053Z,779.3
2022-10-19T08:07:20.738Z,773.1
2022-10-19T08:09:04.427Z,778.1
2022-10-19T08:10:48.110Z,828.8
2022-10-19T08:12:31.812Z,849.2
2022-10-19T08:14:15.572Z,852.3
2022-10-19T08:15:59.356Z,854.7
2022-10-19T08:17:42.996Z,855.4
2022-10-19T08:19:26.624Z,854.9
2022-10-19T08:21:10.326Z,852.6
2022-10-19T08:22:54.133Z,851.9
2022-10-19T08:24:37.812Z,849.9
2022-10-19T08:26:21.465Z,849.7
2022-10-19T08:28:05.157Z,849.6
2022-10-19T08:29:48.875Z,852.3
2022-10-19T08:31:32.598Z,852.9
2022-10-19T08:33:16.307Z,850.6
2022-10-19T08:35:00.002Z,846.5
2022-10-19T08:36:43.674Z,846.3
2022-10-19T08:38:27.380Z,848.1
2022-10-19T08:40:11.065Z,849.4
2022-10-19T08:41:54.759Z,850.6
2022-10-19T08:43:38.530Z,849.9
2022-10-19T08:45:22.203Z,855.5
2022-10-19T08:47:05.877Z,856.8
2022-10-19T08:48:49.637Z,863.6
2022-10-19T08:50:33.329Z,867.4
2022-10-19T08:52:17.040Z,868.2
2022-10-19T08:54:00.714Z,867.3
2022-10-19T08:55:44.397Z,858.9
2022-10-19T08:57:28.090Z,845.9
2022-10-19T08:59:11.871Z,838.6
2022-10-19T09:00:55.509Z,829.5
2022-10-19T09:02:39.249Z,825.6
2022-10-19T09:04:22.958Z,823.5
2022-10-19T09:06:06.608Z,819.6
2022-10-19T09:07:50.297Z,818.4
2022-10-19T09:09:33.992Z,815.7
2022-10-19T09:11:17.758Z,815.4
2022-10-19T09:13:01.447Z,813.5
2022-10-19T09:14:45.130Z,813.8
2022-10-19T09:16:28.814Z,811.9
2022-10-19T09:18:12.507Z,809.1
2022-10-19T09:19:56.223Z,811
2022-10-19T09:21:39.902Z,810.2
2022-10-19T09:23:23.652Z,809.7
2022-10-19T09:26:51.154Z,801.1
2022-10-19T09:28:34.714Z,801.6
2022-10-19T09:30:18.416Z,800.8
2022-10-19T09:32:02.107Z,797.5
2022-10-19T09:33:45.873Z,796.3
2022-10-19T09:35:29.542Z,791.9
2022-10-19T09:37:13.220Z,790.3
2022-10-19T09:38:56.917Z,791.9
2022-10-19T09:40:40.629Z,798.2
2022-10-19T09:42:24.312Z,806.2
2022-10-19T09:44:08.065Z,807.8
2022-10-19T09:45:51.743Z,812.3
2022-10-19T09:47:35.445Z,817.9
2022-10-19T09:49:19.143Z,823.3
2022-10-19T09:51:02.901Z,827.6
2022-10-19T09:52:46.583Z,830.9
2022-10-19T09:54:30.266Z,833
2022-10-19T09:56:14.028Z,835.5
2022-10-19T09:57:57.649Z,837.2
2022-10-19T09:59:41.424Z,838.1
2022-10-19T10:01:25.103Z,845.4
2022-10-19T10:03:08.809Z,854.8
2022-10-19T10:04:52.472Z,864.2
2022-10-19T10:06:36.173Z,869.8
2022-10-19T10:08:19.878Z,876.3
2022-10-19T10:10:03.627Z,886.6
2022-10-19T10:11:47.313Z,896.4
2022-10-19T10:13:31.003Z,904
2022-10-19T10:15:14.689Z,914.6
2022-10-19T10:16:58.404Z,922.9
2022-10-19T10:18:42.190Z,926.7
2022-10-19T10:20:25.837Z,930
2022-10-19T10:22:09.519Z,932.9
2022-10-19T10:23:53.205Z,936.1
2022-10-19T10:25:36.923Z,938.6
2022-10-19T10:27:20.682Z,939.6
2022-10-19T10:29:04.360Z,940.7
2022-10-19T10:30:48.036Z,935.4
2022-10-19T10:32:31.745Z,934.5
2022-10-19T10:34:15.445Z,935.5
2022-10-19T10:35:59.144Z,935.1
2022-10-19T10:37:42.882Z,937.8
2022-10-19T10:39:26.564Z,940.2
2022-10-19T10:41:10.258Z,942.8
2022-10-19T10:42:53.979Z,949.8
2022-10-19T10:44:37.657Z,956.5
2022-10-19T10:46:21.409Z,961.6
2022-10-19T10:48:05.187Z,961.4
2022-10-19T10:49:48.886Z,961.4
2022-10-19T10:51:32.451Z,966.5
2022-10-19T10:53:16.169Z,969.4
2022-10-19T10:54:59.859Z,970.3
2022-10-19T10:56:43.543Z,973.8
2022-10-19T10:58:27.297Z,977.8
2022-10-19T11:00:10.973Z,978.3
2022-10-19T11:01:54.750Z,981
2022-10-19T11:03:38.435Z,984.1
2022-10-19T11:05:22.068Z,987.6
2022-10-19T11:07:05.846Z,987.6
2022-10-19T11:08:49.500Z,991.4
2022-10-19T11:10:33.242Z,990.3
2022-10-19T11:12:16.924Z,980.9
2022-10-19T11:14:00.582Z,973.9
2022-10-19T11:15:44.279Z,973.4
2022-10-19T11:17:28.040Z,971.8
2022-10-19T11:19:11.732Z,968.7
2022-10-19T11:20:55.397Z,970.2
2022-10-19T11:22:39.100Z,971.5
2022-10-19T11:24:22.799Z,976.1
2022-10-19T11:26:06.547Z,981.9
2022-10-19T11:27:50.316Z,985.9
2022-10-19T11:29:33.964Z,991.1
2022-10-19T11:31:17.607Z,996.7
2022-10-19T11:33:01.331Z,1001.2
2022-10-19T11:34:45.068Z,1002.1
2022-10-19T11:36:28.756Z,1000.5
2022-10-19T11:38:12.436Z,999.8
2022-10-19T11:39:56.116Z,1005.1
2022-10-19T11:41:39.815Z,1032.1
2022-10-19T11:43:23.592Z,1040.6
2022-10-19T11:45:07.279Z,1046.8
2022-10-19T11:46:50.959Z,1046.2
2022-10-19T11:48:34.641Z,1049
2022-10-19T11:50:18.340Z,1048.6
2022-10-19T11:52:02.027Z,1057.7
2022-10-19T11:53:45.722Z,1059.2
2022-10-19T11:55:29.485Z,1054.6
2022-10-19T11:57:13.170Z,1048.5
2022-10-19T11:58:56.846Z,1038.2
2022-10-19T12:00:40.542Z,1023.1
2022-10-19T12:02:24.251Z,1007.9
2022-10-19T12:04:08.007Z,994.2
2022-10-19T12:05:51.690Z,986.8
2022-10-19T12:07:35.366Z,990
2022-10-19T12:09:19.056Z,991.5
2022-10-19T12:11:02.847Z,993.8
2022-10-19T12:12:46.456Z,991.4
2022-10-19T12:14:30.149Z,984.6
2022-10-19T12:16:13.893Z,929.6
2022-10-19T12:17:57.571Z,834.2
2022-10-19T12:19:41.258Z,689.6
2022-10-19T12:21:24.963Z,742.8
2022-10-19T12:23:08.666Z,761.4
2022-10-19T12:24:52.418Z,716.2
2022-10-19T12:26:36.100Z,621
2022-10-19T12:28:19.774Z,618.9
2022-10-19T12:30:03.490Z,602.5
2022-10-19T12:31:47.189Z,548.8
2022-10-19T12:33:30.875Z,535
2022-10-19T12:35:14.614Z,530.7
2022-10-19T12:36:58.299Z,533.5
2022-10-19T12:38:42.005Z,529.7
2022-10-19T12:40:25.693Z,517.1
2022-10-19T12:42:09.403Z,499.9
2022-10-19T12:43:53.156Z,487.9
2022-10-19T12:45:36.825Z,484.9
2022-10-19T12:47:20.526Z,481.4
2022-10-19T12:49:04.212Z,477.7
2022-10-19T12:50:47.992Z,476.1
2022-10-19T12:52:31.669Z,473.8
2022-10-19T12:54:15.349Z,477.4
2022-10-19T12:55:59.040Z,479.4
2022-10-19T12:57:42.822Z,481.4
2022-10-19T12:59:26.539Z,488
2022-10-19T13:01:10.191Z,498.2
2022-10-19T13:02:54.026Z,507.1
2022-10-19T13:04:37.625Z,511.4
2022-10-19T13:06:21.306Z,516.2
2022-10-19T13:08:05.027Z,589.8
2022-10-19T13:09:48.872Z,579.5
2022-10-19T13:11:32.513Z,606.4
2022-10-19T13:13:16.225Z,683.6
2022-10-19T13:14:59.859Z,673.7
2022-10-19T13:16:43.592Z,665.3
2022-10-19T13:18:27.172Z,655.9
2022-10-19T13:20:11.018Z,660.6
2022-10-19T13:21:54.645Z,714.9
2022-10-19T13:23:38.332Z,727.2
2022-10-19T13:25:21.969Z,760.9
2022-10-19T13:27:05.686Z,768.7
2022-10-19T13:28:49.449Z,749.6
2022-10-19T13:30:33.139Z,750.1
2022-10-19T13:32:16.815Z,754.8
2022-10-19T13:34:00.481Z,762.1
2022-10-19T13:35:44.201Z,775.3
2022-10-19T13:37:27.899Z,814
2022-10-19T13:39:11.652Z,835.4
2022-10-19T13:40:55.328Z,841.8
2022-10-19T13:42:39.023Z,847.3
2022-10-19T13:44:22.706Z,855.8
2022-10-19T13:46:06.385Z,866.3
2022-10-19T13:47:50.100Z,880.8
2022-10-19T13:49:33.851Z,893.3
2022-10-19T13:51:17.536Z,906.6
2022-10-19T13:53:01.226Z,919.4
2022-10-19T13:54:44.912Z,928.4
2022-10-19T13:56:28.608Z,937.3
2022-10-19T13:58:12.300Z,945.3
2022-10-19T13:59:55.995Z,962.5
2022-10-19T14:01:39.736Z,991.5
2022-10-19T14:03:23.425Z,1008.4
2022-10-19T14:05:07.133Z,1009.9
2022-10-19T14:06:50.834Z,1016.7
2022-10-19T14:08:34.583Z,1007.9
2022-10-19T14:10:18.274Z,1009.4
2022-10-19T14:12:01.951Z,1073.6
2022-10-19T14:13:45.654Z,1103
2022-10-19T14:15:29.336Z,1099.2
2022-10-19T14:17:13.115Z,1096.7
2022-10-19T14:18:56.812Z,1086.7
2022-10-19T14:20:40.475Z,1074.5
2022-10-19T14:22:24.157Z,1068.5
2022-10-19T14:24:07.876Z,1066.8
2022-10-19T14:25:51.574Z,1068.9
2022-10-19T14:27:35.343Z,1074.3
2022-10-19T14:29:19.000Z,1079.9
2022-10-19T14:31:02.688Z,1091
2022-10-19T14:32:46.383Z,1099.9
2022-10-19T14:34:30.095Z,1118
2022-10-19T14:36:13.842Z,1135.5
2022-10-19T14:37:57.527Z,1148.4
2022-10-19T14:39:41.209Z,1154.9
2022-10-19T14:41:24.910Z,1161.5
2022-10-19T14:43:08.608Z,1170.5
2022-10-19T14:44:52.358Z,1182.5
2022-10-19T14:46:36.042Z,1187.8
2022-10-19T14:48:19.753Z,1190.9
2022-10-19T14:50:03.407Z,1204.6
2022-10-19T14:51:47.113Z,1304.9
2022-10-19T14:53:30.814Z,1268.3
2022-10-19T14:55:14.566Z,1255
2022-10-19T14:56:58.249Z,1253.8
2022-10-19T14:58:41.932Z,1259.5
2022-10-19T15:00:25.609Z,1263.5
2022-10-19T15:02:09.310Z,1277.3
2022-10-19T15:03:53.026Z,1283.5
2022-10-19T15:05:36.768Z,1286.4
2022-10-19T15:07:20.461Z,1289.4
2022-10-19T15:09:04.131Z,1298.1
2022-10-19T15:10:47.855Z,1303.8
2022-10-19T15:12:31.589Z,1309.5
2022-10-19T15:14:15.249Z,1312.5
2022-10-19T15:15:58.983Z,1317.4
2022-10-19T15:17:42.659Z,1318.3
2022-10-19T15:19:26.334Z,1339.8
2022-10-19T15:21:10.026Z,1369.3
2022-10-19T15:22:53.733Z,1347
2022-10-19T15:24:37.431Z,1337.7
2022-10-19T15:26:21.183Z,1340.2
2022-10-19T15:28:04.863Z,1346.2
2022-10-19T15:29:48.553Z,1351.2
2022-10-19T15:31:32.243Z,1355
2022-10-19T15:33:15.967Z,1356.7
2022-10-19T15:34:59.671Z,1355.1
2022-10-19T15:36:43.381Z,1353.9
2022-10-19T15:38:27.074Z,1356.2
2022-10-19T15:40:10.808Z,1355.8
2022-10-19T15:41:54.449Z,1360.8
2022-10-19T15:43:38.169Z,1366.8
2022-10-19T15:45:21.906Z,1366.2
2022-10-19T15:47:05.601Z,1364.7
2022-10-19T15:48:49.274Z,1358.8
2022-10-19T15:50:32.965Z,1350.7
2022-10-19T15:52:16.734Z,1347.4
2022-10-19T15:54:00.438Z,1348.7
2022-10-19T15:55:44.122Z,1349.1
2022-10-19T15:57:27.797Z,1352.8
2022-10-19T15:59:11.477Z,1361.9
2022-10-19T16:00:55.186Z,1360.9
2022-10-19T16:02:38.884Z,1368.3
2022-10-19T16:04:22.645Z,1363.2
2022-10-19T16:06:06.319Z,1356.2
2022-10-19T16:07:50.012Z,1354
2022-10-19T16:09:33.732Z,1354.1
2022-10-19T16:11:17.408Z,1360.5
2022-10-19T16:13:01.166Z,1358.2
2022-10-19T16:14:44.844Z,1357.1
2022-10-19T16:16:28.549Z,1356.4
2022-10-19T16:18:12.227Z,1364.4
2022-10-19T16:19:55.943Z,1374.6
2022-10-19T16:21:39.623Z,1376.3
2022-10-19T16:23:23.364Z,1370.3
2022-10-19T16:25:07.060Z,1383.4
2022-10-19T16:26:50.737Z,1401.5
2022-10-19T16:28:34.444Z,1401.2
2022-10-19T16:30:18.138Z,1422.5
2022-10-19T16:32:01.886Z,1434.6
2022-10-19T16:33:45.575Z,1436.9
2022-10-19T16:35:29.251Z,1432.5
2022-10-19T16:37:12.951Z,1432.7
2022-10-19T16:38:56.664Z,1430.9
2022-10-19T16:40:40.426Z,1427.5
2022-10-19T16:42:24.136Z,1424.3
2022-10-19T16:44:07.778Z,1419.3
2022-10-19T16:45:51.472Z,1415.8
2022-10-19T16:47:35.170Z,1411.4
2022-10-19T16:49:18.869Z,1408.4
2022-10-19T16:51:02.624Z,1406.4
2022-10-19T16:52:46.299Z,1400.5
2022-10-19T16:54:29.994Z,1389.2
2022-10-19T16:56:13.678Z,1380.6
2022-10-19T16:57:57.390Z,1395.7
2022-10-19T16:59:41.154Z,1403.3
2022-10-19T17:01:24.833Z,1403.4
2022-10-19T17:04:52.184Z,1416.2
2022-10-19T17:06:35.905Z,1415.9
2022-10-19T17:08:19.602Z,1406.2
2022-10-19T17:10:03.356Z,1395.7
2022-10-19T17:11:47.031Z,1395.9
2022-10-19T17:13:30.724Z,1398.2
2022-10-19T17:15:14.443Z,1403.8
2022-10-19T17:16:58.119Z,1410
2022-10-19T17:18:41.904Z,1411.6
2022-10-19T17:20:25.552Z,1411.7
2022-10-19T17:22:09.240Z,1413.8
2022-10-19T17:23:52.928Z,1417.2
2022-10-19T17:25:36.675Z,1417.9
2022-10-19T17:27:20.397Z,1421.6
2022-10-19T17:29:04.081Z,1427.5
2022-10-19T17:30:47.761Z,1433.6
2022-10-19T17:32:31.446Z,1440.6
2022-10-19T17:35:58.841Z,1409.4
2022-10-19T17:37:42.539Z,1378.2
2022-10-19T17:39:26.289Z,1365.2
2022-10-19T17:41:09.973Z,1359.2
2022-10-19T17:42:53.659Z,1359.7
2022-10-19T17:44:37.396Z,1356.6
2022-10-19T17:46:21.062Z,1352.2
2022-10-19T17:48:04.825Z,1344.6
2022-10-19T17:49:48.489Z,1339.1
2022-10-19T17:51:32.167Z,1341.5
2022-10-19T17:53:15.864Z,1348.9
2022-10-19T17:54:59.562Z,1349
2022-10-19T17:56:43.271Z,1344.1
2022-10-19T17:58:27.014Z,1346.6
2022-10-19T18:00:10.692Z,1350
2022-10-19T18:01:54.417Z,1350.2
2022-10-19T18:03:38.079Z,1336.6
2022-10-19T18:05:21.784Z,1321.2
2022-10-19T18:07:05.541Z,1240.4
2022-10-19T18:08:49.214Z,1230.6
2022-10-19T18:10:32.897Z,1250.9
2022-10-19T18:12:16.605Z,1265.8
2022-10-19T18:14:00.330Z,1270
2022-10-19T18:15:44.007Z,1266.4
2022-10-19T18:17:27.740Z,1269
2022-10-19T18:19:11.422Z,1267.9
2022-10-19T18:20:55.109Z,1268.2
2022-10-19T18:22:38.816Z,1270.5
2022-10-19T18:24:22.524Z,1271.6
2022-10-19T18:26:06.271Z,1274.9
2022-10-19T18:27:49.966Z,1280.4
2022-10-19T18:29:33.634Z,1280.9
2022-10-19T18:31:17.363Z,1280.9
2022-10-19T18:33:01.026Z,1276
2022-10-19T18:34:44.796Z,1271.7
2022-10-19T18:36:28.474Z,1269.9
2022-10-19T18:38:12.149Z,1268.4
2022-10-19T18:39:55.850Z,1265.7
2022-10-19T18:41:39.556Z,1266.7
2022-10-19T18:43:23.328Z,1265
2022-10-19T18:45:06.998Z,1265.3
2022-10-19T18:46:50.677Z,1263.2
2022-10-19T18:48:34.366Z,1265
2022-10-19T18:50:18.066Z,1264.2
2022-10-19T18:52:01.824Z,1269.9
2022-10-19T18:53:45.525Z,1279.2
2022-10-19T18:55:29.215Z,1285.9
2022-10-19T18:57:12.945Z,1287.2
2022-10-19T18:58:56.605Z,1290.8
2022-10-19T19:00:40.284Z,1290.8
2022-10-19T19:02:23.990Z,1288.3
2022-10-19T19:04:07.732Z,1289.4
2022-10-19T19:05:51.411Z,1293.8
2022-10-19T19:07:35.098Z,1295.5
2022-10-19T19:09:18.800Z,1292.1
2022-10-19T19:11:02.503Z,1288.1
2022-10-19T19:12:46.252Z,1289.2
2022-10-19T19:14:29.936Z,1289.4
2022-10-19T19:16:13.651Z,1289.5
2022-10-19T19:17:57.324Z,1290.5
2022-10-19T19:19:41.023Z,1294
2022-10-19T19:21:24.786Z,1289
2022-10-19T19:23:08.477Z,1289.8
2022-10-19T19:24:52.139Z,1288.7
2022-10-19T19:26:35.835Z,1287.5
2022-10-19T19:28:19.563Z,1285.2
2022-10-19T19:30:03.282Z,1283.7
2022-10-19T19:31:46.978Z,1281.4
2022-10-19T19:33:30.675Z,1280.9
2022-10-19T19:35:14.360Z,1280.2
2022-10-19T19:36:58.057Z,1278.2
2022-10-19T19:38:41.749Z,1279.9
2022-10-19T19:40:25.516Z,1282.3
2022-10-19T19:42:09.184Z,1290
2022-10-19T19:43:52.869Z,1299.1
2022-10-19T19:45:36.570Z,1307.3
2022-10-19T19:47:20.287Z,1314.3
2022-10-19T19:49:04.034Z,1330.1
2022-10-19T19:50:47.702Z,1348.4
2022-10-19T19:52:31.407Z,1342.5
2022-10-19T19:54:15.109Z,1336.7
2022-10-19T19:55:58.792Z,1339.2
2022-10-19T19:57:42.576Z,1342.2
2022-10-19T19:59:26.231Z,1339.3
2022-10-19T20:01:09.920Z,1351.7
2022-10-19T20:02:53.598Z,1363.5
2022-10-19T20:04:37.313Z,1374.1
2022-10-19T20:06:21.001Z,1384.2
2022-10-19T20:08:04.752Z,1392.9
2022-10-19T20:09:48.438Z,1385.5
2022-10-19T20:11:32.115Z,1387
2022-10-19T20:13:15.813Z,1419.3
2022-10-19T20:14:59.524Z,1447.5
2022-10-19T20:16:43.302Z,1460.6
2022-10-19T20:18:26.968Z,1466.8
2022-10-19T20:20:10.654Z,1462.3
2022-10-19T20:21:54.320Z,1466.2
2022-10-19T20:23:38.022Z,1471.3
2022-10-19T20:25:21.716Z,1476.4
2022-10-19T20:27:05.398Z,1480.1
2022-10-19T20:28:49.168Z,1480.6
2022-10-19T20:30:32.846Z,1472.1
2022-10-19T20:32:16.536Z,1474.7
2022-10-19T20:34:00.206Z,1472.7
2022-10-19T20:35:43.918Z,1470.8
2022-10-19T20:37:27.627Z,1470.6
2022-10-19T20:39:11.395Z,1474.1
2022-10-19T20:40:55.067Z,1473.9
2022-10-19T20:42:38.742Z,1473.1
2022-10-19T20:44:22.456Z,1472.8
2022-10-19T20:46:06.142Z,1475.3
2022-10-19T20:47:49.831Z,1475.6
2022-10-19T20:49:33.577Z,1476.6
2022-10-19T20:51:17.253Z,1473.3
2022-10-19T20:53:00.934Z,1472.2
2022-10-19T20:54:44.636Z,1469.2
2022-10-19T20:56:28.380Z,1467.1
2022-10-19T20:58:12.103Z,1466.7
2022-10-19T20:59:55.782Z,1467.1
2022-10-19T21:01:39.457Z,1466.6
2022-10-19T21:03:23.144Z,1465.2
2022-10-19T21:05:06.855Z,1461.3
2022-10-19T21:06:50.546Z,1458.7
2022-10-19T21:08:34.245Z,1459
2022-10-19T21:10:17.986Z,1455.2
2022-10-19T21:12:01.666Z,1453.6
2022-10-19T21:13:45.382Z,1446.8
2022-10-19T21:15:29.065Z,1443.5
2022-10-19T21:17:12.766Z,1446.3
2022-10-19T21:18:56.510Z,1450.1
2022-10-19T21:20:40.187Z,1447
2022-10-19T21:22:23.885Z,1448.1
2022-10-19T21:24:07.582Z,1448.8
2022-10-19T21:25:51.289Z,1451.2
2022-10-19T21:27:35.037Z,1445.8
2022-10-19T21:29:18.741Z,1445
2022-10-19T21:31:02.393Z,1444.6
2022-10-19T21:32:46.097Z,1448.1
2022-10-19T21:34:29.813Z,1444.1
2022-10-19T21:36:13.505Z,1435.3
2022-10-19T21:37:57.246Z,1432.9
2022-10-19T21:39:40.915Z,1433.5
2022-10-19T21:41:24.606Z,1429
2022-10-19T21:43:08.301Z,1428.3
2022-10-19T21:44:52.082Z,1430.2
2022-10-19T21:46:35.803Z,1430.5
2022-10-19T21:48:19.444Z,1425.2
2022-10-19T21:50:03.132Z,1420.3
2022-10-19T21:51:46.819Z,1419.7
2022-10-19T21:53:30.517Z,1406.4
2022-10-19T21:55:14.206Z,1375.9
2022-10-19T21:56:57.974Z,1369.2
2022-10-19T21:58:41.648Z,1369.7
2022-10-19T22:00:25.348Z,1355.9
2022-10-19T22:02:09.008Z,1348.2
2022-10-19T22:03:52.713Z,1329.4
2022-10-19T22:05:36.412Z,1318.4
2022-10-19T22:07:20.169Z,1317.1
2022-10-19T22:09:03.851Z,1307.5
2022-10-19T22:10:47.529Z,1280.2